OIZI

Iramshahr Airport

Airport
ICAO code
OIZI
IATA Code
IHR
Summary
ICAO Region
MID
ICAO Territory
Location

Sarzeh, Sistan and Baluchistan Province

Serving
Iramshahr
Elevation
2040 ft
Coordinates
27° 13' 43" N , 60° 43' 6" E
KCC
Metar
Observation
OIZI 070200Z 01006KT CAVOK 14/04 Q1020
Station
Iranshahr
Date/Time
2022-12-07 02:00:00
Wind direction
10°
Wind speed
06 kts
Lowest cloud amount
clouds and visibility OK
Temperature
14°C
Dew point
4°C
Humidity
50%
QNH
1020 hPa
Weather condition
n/a

Airport serving Iranshahr, Iran.

Climatology

Hot Desert climate (Köppen climate classification BWh).

Runways

Designator Length Width Surface Rops
17/35 2350 46 ASP No/No

Airport map

Aerial View

SKYbrary Partners:

Safety knowledge contributed by: